Time;durP1;ratioP1;P1;durP2;ratioP2;P2;SDS_P1;SDS_P2;PMS_P1;PMS_P2;Temp;Humidity;BMP_temperature;BMP_pressure;BME280_temperature;BME280_humidity;BME280_pressure;Samples;Min_cycle;Max_cycle;Signal;HPM_P1;HPM_P2
2023/08/02 00:00:43;;;;;;;4.00;1.43;;;;;;;17.56;77.81;97888.59;5158485;27;41669;-78
2023/08/02 00:03:10;;;;;;;1.17;1.00;;;;;;;17.58;78.17;97900.81;5158570;27;42703;-77
2023/08/02 00:05:38;;;;;;;3.53;1.50;;;;;;;17.61;78.18;97891.63;5140911;27;41235;-77
2023/08/02 00:08:06;;;;;;;2.50;1.07;;;;;;;17.57;77.93;97888.44;5140798;27;40068;-77
2023/08/02 00:10:36;;;;;;;4.37;1.47;;;;;;;17.59;78.22;97870.38;5176157;27;41754;-77
2023/08/02 00:13:05;;;;;;;1.50;1.40;;;;;;;17.67;78.01;97887.50;5139731;27;42838;-77
2023/08/02 00:15:33;;;;;;;1.83;1.47;;;;;;;17.68;77.90;97878.47;5157263;27;42352;-77
2023/08/02 00:18:00;;;;;;;2.43;1.53;;;;;;;17.68;78.23;97883.81;5139718;27;39955;-77
2023/08/02 00:20:28;;;;;;;1.97;1.53;;;;;;;17.69;78.01;97880.97;5157229;27;42142;-77
2023/08/02 00:22:55;;;;;;;1.83;1.20;;;;;;;17.70;78.21;97876.44;5139747;27;41756;-77
2023/08/02 00:25:23;;;;;;;2.73;1.10;;;;;;;17.51;78.06;97848.94;5174777;27;43346;-77
2023/08/02 00:27:51;;;;;;;2.23;1.40;;;;;;;17.71;77.86;97878.13;5139259;27;39611;-77
2023/08/02 00:30:19;;;;;;;1.77;1.40;;;;;;;17.73;78.12;97873.44;5139418;27;40849;-77
2023/08/02 00:32:48;;;;;;;1.47;1.00;;;;;;;17.66;78.42;97859.06;5156701;27;42020;-77
2023/08/02 00:35:16;;;;;;;3.53;1.40;;;;;;;17.70;78.98;97860.38;5139374;27;42705;-77
2023/08/02 00:37:45;;;;;;;1.33;1.23;;;;;;;17.69;78.57;97864.03;5174367;27;41958;-77
2023/08/02 00:40:13;;;;;;;2.03;1.40;;;;;;;17.68;78.48;97857.84;5140053;27;40702;-77
2023/08/02 00:42:41;;;;;;;1.50;1.40;;;;;;;17.69;78.60;97858.69;5140120;27;42011;-78
2023/08/02 00:45:09;;;;;;;1.70;1.27;;;;;;;17.73;78.56;97860.06;5140656;27;41281;-77
2023/08/02 00:47:39;;;;;;;3.77;1.17;;;;;;;17.62;78.39;97837.06;5176496;27;40994;-77
2023/08/02 00:50:07;;;;;;;2.50;1.53;;;;;;;17.74;78.29;97853.69;5140231;27;40732;-77
2023/08/02 00:52:35;;;;;;;2.63;1.40;;;;;;;17.56;78.18;97817.16;5138347;27;41873;-77
2023/08/02 00:55:03;;;;;;;1.23;1.10;;;;;;;17.76;77.93;97844.50;5121841;27;41379;-77
2023/08/02 00:57:31;;;;;;;1.90;1.43;;;;;;;17.72;77.94;97837.78;5138559;27;40336;-77
2023/08/02 00:59:59;;;;;;;2.73;1.33;;;;;;;17.66;77.53;97835.78;5156163;27;40819;-77
2023/08/02 01:02:27;;;;;;;2.27;1.40;;;;;;;17.78;77.48;97847.00;5139006;27;42903;-77
2023/08/02 01:04:56;;;;;;;3.43;1.57;;;;;;;17.78;77.57;97841.66;5175197;27;42388;-78
2023/08/02 01:07:29;;;;;;;3.73;1.40;;;;;;;17.45;77.48;97788.03;5138977;27;40049;-78
2023/08/02 01:10:07;;;;;;;2.03;1.30;;;;;;;17.71;77.62;97829.91;5171800;27;42570;-78
2023/08/02 01:12:36;;;;;;;3.07;1.40;;;;;;;17.74;77.40;97846.50;5156068;27;41468;-77
2023/08/02 01:15:07;;;;;;;1.50;1.40;;;;;;;17.71;77.65;97845.97;5121919;27;42647;-77
2023/08/02 01:17:36;;;;;;;1.43;1.33;;;;;;;17.59;77.49;97832.88;5138627;27;39899;-77
2023/08/02 01:20:07;;;;;;;2.57;1.60;;;;;;;17.69;77.60;97850.66;5138845;27;41043;-77
2023/08/02 01:22:35;;;;;;;2.10;1.50;;;;;;;17.66;77.54;97851.00;5155453;27;42793;-77
2023/08/02 01:25:04;;;;;;;2.57;1.00;;;;;;;17.64;77.57;97845.81;5155932;27;42233;-77
2023/08/02 01:27:36;;;;;;;2.03;1.40;;;;;;;17.60;77.44;97844.44;5155954;27;40765;-77
2023/08/02 01:30:07;;;;;;;1.30;1.20;;;;;;;17.62;77.58;97854.97;5152881;27;41726;-77
2023/08/02 01:32:35;;;;;;;1.53;1.10;;;;;;;17.55;77.65;97842.28;5138466;27;41667;-76
2023/08/02 01:35:05;;;;;;;2.17;1.33;;;;;;;17.57;77.79;97850.94;5174734;27;43049;-77
2023/08/02 01:37:35;;;;;;;1.30;1.20;;;;;;;17.54;78.03;97850.47;5156161;27;40788;-76
2023/08/02 01:40:04;;;;;;;2.93;1.43;;;;;;;17.50;77.87;97844.59;5138699;27;40850;-77
2023/08/02 01:42:32;;;;;;;1.30;1.20;;;;;;;17.51;78.02;97845.44;5155457;27;43025;-77
2023/08/02 01:45:02;;;;;;;1.63;1.33;;;;;;;17.49;78.12;97839.41;5156916;27;42583;-76
2023/08/02 01:47:29;;;;;;;1.57;1.30;;;;;;;17.46;78.16;97832.53;5122775;27;40985;-77
2023/08/02 01:49:57;;;;;;;2.07;1.40;;;;;;;17.34;78.18;97823.13;5174189;27;43022;-78
2023/08/02 01:52:26;;;;;;;2.30;1.33;;;;;;;17.37;78.26;97838.88;5156276;27;42140;-77
2023/08/02 01:54:54;;;;;;;2.70;1.40;;;;;;;17.30;78.24;97819.13;5156643;27;42434;-77
2023/08/02 01:57:21;;;;;;;1.87;1.30;;;;;;;17.31;78.18;97823.44;5139061;27;40957;-77
2023/08/02 01:59:49;;;;;;;1.67;1.20;;;;;;;17.24;78.64;97812.56;5139011;27;41810;-77
2023/08/02 02:02:17;;;;;;;2.20;1.10;;;;;;;17.21;78.42;97807.53;5139023;27;42794;-77
2023/08/02 02:04:45;;;;;;;1.40;1.20;;;;;;;17.16;79.22;97804.53;5139142;27;42287;-77
2023/08/02 02:07:12;;;;;;;1.57;1.03;;;;;;;17.12;79.35;97802.34;5121959;27;41184;-77
2023/08/02 02:09:41;;;;;;;2.13;1.10;;;;;;;17.06;79.36;97803.00;5155116;27;40811;-77
2023/08/02 02:12:09;;;;;;;1.67;1.20;;;;;;;17.01;79.72;97799.97;5154466;27;42856;-77
2023/08/02 02:14:37;;;;;;;2.50;1.00;;;;;;;16.93;79.90;97800.78;5137919;27;41197;-77
2023/08/02 02:17:05;;;;;;;1.20;1.07;;;;;;;16.69;80.06;97758.72;5137865;27;40823;-77
2023/08/02 02:19:32;;;;;;;1.37;1.10;;;;;;;16.86;80.44;97797.91;5155375;27;42566;-77
2023/08/02 02:22:00;;;;;;;3.83;1.60;;;;;;;16.75;81.44;97789.31;5137657;27;42873;-77
2023/08/02 02:24:27;;;;;;;2.03;1.17;;;;;;;16.76;82.42;97801.69;5173863;27;42091;-77
2023/08/02 02:26:59;;;;;;;1.83;1.60;;;;;;;16.74;81.96;97799.19;5137919;27;39812;-77
2023/08/02 02:29:26;;;;;;;1.63;1.33;;;;;;;16.74;82.35;97804.53;5173708;27;41730;-77
2023/08/02 02:31:54;;;;;;;2.03;1.57;;;;;;;16.70;82.95;97788.97;5154723;27;44238;-77
2023/08/02 02:34:21;;;;;;;4.43;1.40;;;;;;;16.71;82.74;97793.31;5155183;27;41137;-77
2023/08/02 02:36:49;;;;;;;3.20;1.50;;;;;;;16.68;83.09;97794.50;5137418;27;40026;-77
2023/08/02 02:39:19;;;;;;;2.77;1.30;;;;;;;16.69;83.11;97801.47;5154750;27;41599;-77
2023/08/02 02:41:46;;;;;;;2.40;1.50;;;;;;;16.66;82.77;97796.47;5156010;27;43619;-77
2023/08/02 02:44:15;;;;;;;2.40;1.43;;;;;;;16.62;82.94;97779.06;5138676;27;42162;-77
2023/08/02 02:46:43;;;;;;;1.80;1.60;;;;;;;16.59;82.52;97789.22;5138343;27;41070;-77
2023/08/02 02:49:10;;;;;;;0.97;0.93;;;;;;;16.57;82.64;97785.88;5155933;27;40718;-77
2023/08/02 02:51:38;;;;;;;2.27;1.50;;;;;;;16.55;82.45;97777.19;5129938;27;42875;-77
2023/08/02 02:54:05;;;;;;;2.13;1.30;;;;;;;16.52;82.50;97767.66;5154741;27;42294;-77
2023/08/02 02:56:33;;;;;;;1.60;1.30;;;;;;;16.48;82.54;97767.13;5138651;27;40728;-77
2023/08/02 02:59:00;;;;;;;1.77;1.40;;;;;;;16.46;82.43;97768.25;5155185;27;41662;-77
2023/08/02 03:01:29;;;;;;;2.97;1.70;;;;;;;16.45;82.49;97766.59;5155510;27;41737;-77
2023/08/02 03:03:57;;;;;;;1.70;1.30;;;;;;;16.42;82.27;97770.44;5138298;27;41207;-77
2023/08/02 03:06:24;;;;;;;1.47;1.30;;;;;;;16.41;82.49;97767.91;5137943;27;39721;-77
2023/08/02 03:08:52;;;;;;;1.47;1.23;;;;;;;16.39;82.36;97773.41;5155426;27;41547;-77
2023/08/02 03:11:20;;;;;;;2.60;1.57;;;;;;;16.44;82.38;97764.94;5136606;27;42857;-77
2023/08/02 03:13:47;;;;;;;1.47;1.03;;;;;;;16.45;82.36;97779.94;5137253;27;42269;-77
2023/08/02 03:16:14;;;;;;;1.87;1.20;;;;;;;16.44;82.17;97770.28;5171705;27;39773;-77
2023/08/02 03:18:44;;;;;;;2.07;1.60;;;;;;;16.47;81.94;97764.59;5172945;27;41835;-77
2023/08/02 03:21:11;;;;;;;2.10;1.60;;;;;;;16.48;81.66;97755.59;5136644;27;41667;-76
2023/08/02 03:23:39;;;;;;;3.97;1.50;;;;;;;16.48;81.88;97752.91;5154205;27;41236;-77
2023/08/02 03:26:07;;;;;;;1.60;1.50;;;;;;;16.49;81.65;97746.56;5154216;27;39875;-77
2023/08/02 03:28:34;;;;;;;3.30;1.17;;;;;;;16.48;81.39;97731.53;5137124;27;41041;-77
2023/08/02 03:31:02;;;;;;;2.07;1.20;;;;;;;16.51;81.09;97739.25;5154133;27;43860;-77
2023/08/02 03:33:30;;;;;;;2.53;1.23;;;;;;;16.22;81.40;97690.66;5136946;27;41542;-77
2023/08/02 03:35:59;;;;;;;1.37;1.07;;;;;;;16.48;81.30;97737.72;5171439;27;40967;-77
2023/08/02 03:38:27;;;;;;;2.77;1.40;;;;;;;16.49;80.89;97735.88;5136713;27;41662;-76
2023/08/02 03:40:54;;;;;;;2.27;1.20;;;;;;;16.47;80.86;97728.03;5171773;27;42736;-76
2023/08/02 03:43:22;;;;;;;2.83;1.60;;;;;;;16.33;80.86;97693.88;5137619;27;40968;-76
2023/08/02 03:45:49;;;;;;;1.97;1.40;;;;;;;16.52;80.56;97722.22;5154696;27;40768;-77
2023/08/02 03:48:17;;;;;;;1.27;1.13;;;;;;;16.53;80.55;97718.53;5173749;27;42833;-76
2023/08/02 03:50:45;;;;;;;1.53;1.43;;;;;;;16.55;80.45;97713.88;5136376;27;42763;-77
2023/08/02 03:53:14;;;;;;;1.90;1.40;;;;;;;16.55;80.66;97711.19;5135973;27;40935;-78
2023/08/02 03:55:42;;;;;;;2.57;1.50;;;;;;;16.58;80.56;97712.69;5153786;27;39955;-78
2023/08/02 03:58:09;;;;;;;2.13;1.13;;;;;;;16.57;80.23;97706.50;5171925;27;41998;-77
2023/08/02 04:00:37;;;;;;;1.10;1.00;;;;;;;16.50;80.41;97689.44;5153708;27;41720;-77
2023/08/02 04:03:04;;;;;;;2.37;1.17;;;;;;;16.58;80.50;97693.97;5153264;27;42794;-77
2023/08/02 04:05:32;;;;;;;1.77;1.40;;;;;;;16.35;80.30;97669.69;5172495;27;41219;-78
2023/08/02 04:07:59;;;;;;;2.07;1.10;;;;;;;16.56;80.12;97683.47;5157129;27;41812;-77
2023/08/02 04:10:29;;;;;;;2.83;1.20;;;;;;;16.59;79.90;97688.47;5139594;27;42965;-78
2023/08/02 04:12:56;;;;;;;3.37;1.37;;;;;;;16.60;79.96;97678.63;5156842;27;41619;-78
2023/08/02 04:15:24;;;;;;;2.30;1.27;;;;;;;16.63;80.04;97684.53;5140019;27;40481;-78
2023/08/02 04:17:51;;;;;;;2.10;1.30;;;;;;;16.64;80.07;97680.00;5139872;27;40829;-78
2023/08/02 04:20:19;;;;;;;2.87;1.57;;;;;;;16.63;80.22;97673.84;5156747;27;42779;-77
2023/08/02 04:22:47;;;;;;;2.13;1.53;;;;;;;16.66;80.15;97667.31;5157141;27;41173;-77
2023/08/02 04:25:15;;;;;;;2.63;1.23;;;;;;;16.65;80.09;97655.81;5157024;27;40271;-77
2023/08/02 04:27:44;;;;;;;2.43;1.33;;;;;;;16.66;79.93;97665.50;5156939;27;42666;-78
2023/08/02 04:30:12;;;;;;;3.17;1.30;;;;;;;16.67;79.94;97667.16;5139582;27;43437;-77
2023/08/02 04:32:40;;;;;;;2.20;1.10;;;;;;;16.71;79.90;97662.31;5175411;27;43292;-77
2023/08/02 04:35:08;;;;;;;1.20;0.93;;;;;;;16.73;79.37;97658.47;5122657;27;41059;-77
2023/08/02 04:37:37;;;;;;;1.40;1.30;;;;;;;16.75;79.37;97644.94;5156678;27;40832;-78
2023/08/02 04:40:06;;;;;;;1.50;1.13;;;;;;;16.76;79.49;97636.78;5139458;27;41669;-77
2023/08/02 04:42:33;;;;;;;2.77;1.47;;;;;;;16.81;79.35;97634.44;5140385;27;41097;-78
2023/08/02 04:45:02;;;;;;;1.57;1.27;;;;;;;16.79;79.13;97628.44;5140434;27;40921;-77
2023/08/02 04:47:31;;;;;;;1.70;1.57;;;;;;;16.85;78.98;97635.78;5157804;27;41704;-77
2023/08/02 04:49:58;;;;;;;2.53;1.07;;;;;;;16.92;79.09;97635.13;5140622;27;43770;-77
2023/08/02 04:52:26;;;;;;;3.50;1.37;;;;;;;16.97;78.37;97630.94;5156208;27;42621;-76
2023/08/02 04:54:54;;;;;;;1.70;1.20;;;;;;;17.00;78.54;97641.31;5121612;27;39662;-77
2023/08/02 04:57:21;;;;;;;2.33;1.13;;;;;;;16.94;78.37;97622.44;5139268;27;42455;-77
2023/08/02 04:59:53;;;;;;;2.40;0.90;;;;;;;17.10;77.96;97649.19;5138656;27;41916;-77
2023/08/02 05:02:26;;;;;;;2.40;1.30;;;;;;;17.11;78.18;97630.28;5156607;27;42079;-77
2023/08/02 05:04:53;;;;;;;2.47;1.00;;;;;;;17.26;77.76;97635.81;5156745;27;40003;-77
2023/08/02 05:07:21;;;;;;;1.80;1.03;;;;;;;17.36;77.59;97633.81;5156132;27;40761;-78
2023/08/02 05:09:48;;;;;;;1.10;1.00;;;;;;;17.39;77.39;97629.97;5175025;27;42508;-77
2023/08/02 05:12:16;;;;;;;2.30;1.23;;;;;;;17.48;77.05;97643.16;5174742;27;42375;-77
2023/08/02 05:14:43;;;;;;;3.60;1.37;;;;;;;17.57;76.85;97646.66;5175018;27;40839;-77
2023/08/02 05:17:11;;;;;;;1.03;1.00;;;;;;;17.61;76.78;97642.63;5155979;27;42031;-77
2023/08/02 05:19:40;;;;;;;2.13;1.10;;;;;;;17.62;76.67;97640.81;5138732;27;43201;-77
2023/08/02 05:22:08;;;;;;;1.93;0.90;;;;;;;17.65;76.67;97643.19;5155862;27;42337;-77
2023/08/02 05:24:35;;;;;;;3.03;1.20;;;;;;;17.68;76.42;97653.56;5156289;27;40921;-77
2023/08/02 05:27:04;;;;;;;1.57;1.10;;;;;;;17.66;76.05;97644.84;5138234;27;40604;-77
2023/08/02 05:29:31;;;;;;;2.30;1.23;;;;;;;17.71;75.90;97647.84;5155932;27;41971;-78
2023/08/02 05:31:59;;;;;;;2.03;1.10;;;;;;;17.74;75.95;97628.75;5138136;27;41428;-77
2023/08/02 05:34:26;;;;;;;1.00;0.90;;;;;;;17.67;75.54;97601.84;5138674;27;40102;-78
2023/08/02 05:36:56;;;;;;;1.30;1.20;;;;;;;17.60;75.30;97572.19;5155983;27;41784;-78
2023/08/02 05:39:23;;;;;;;2.80;1.50;;;;;;;17.88;75.27;97607.47;5174397;27;42650;-77
2023/08/02 05:41:51;;;;;;;1.27;1.10;;;;;;;17.91;75.20;97607.13;5175093;27;42307;-77
2023/08/02 05:44:18;;;;;;;2.50;1.20;;;;;;;17.92;75.50;97610.66;5139394;27;41426;-77
2023/08/02 05:46:46;;;;;;;2.17;1.20;;;;;;;17.94;75.32;97605.94;5156493;27;40952;-77
2023/08/02 05:49:13;;;;;;;1.80;1.13;;;;;;;17.94;75.33;97606.78;5148490;27;43033;-77
2023/08/02 05:51:41;;;;;;;2.93;1.40;;;;;;;17.84;75.14;97584.72;5156490;27;42199;-77
2023/08/02 05:54:10;;;;;;;1.47;1.23;;;;;;;17.96;75.31;97598.56;5156679;27;40397;-78
2023/08/02 05:56:38;;;;;;;2.10;1.60;;;;;;;17.90;75.11;97588.56;5138813;27;40893;-77
2023/08/02 05:59:06;;;;;;;2.40;1.37;;;;;;;17.95;75.31;97586.19;5137505;27;41813;-78
2023/08/02 06:01:34;;;;;;;1.97;1.17;;;;;;;17.78;75.20;97569.34;5137919;27;41680;-78
2023/08/02 06:04:01;;;;;;;1.67;1.17;;;;;;;18.02;75.31;97595.22;5174100;27;40933;-78
2023/08/02 06:06:29;;;;;;;1.27;1.10;;;;;;;18.05;75.19;97586.81;5172682;27;42782;-78
2023/08/02 06:08:58;;;;;;;2.27;1.17;;;;;;;18.02;74.81;97570.25;5138429;27;41553;-78
2023/08/02 06:11:27;;;;;;;1.43;1.10;;;;;;;18.15;74.69;97590.13;5136856;27;41226;-78
2023/08/02 06:13:55;;;;;;;2.20;1.10;;;;;;;18.20;74.59;97579.72;5138196;27;40646;-78
2023/08/02 06:16:23;;;;;;;1.47;1.10;;;;;;;18.22;74.69;97577.69;5155385;27;40745;-79
2023/08/02 06:18:50;;;;;;;2.30;1.20;;;;;;;18.25;74.27;97576.50;5155491;27;43073;-78
2023/08/02 06:21:18;;;;;;;5.67;1.40;;;;;;;18.26;74.40;97568.31;5155020;27;41696;-78
2023/08/02 06:23:46;;;;;;;1.13;1.07;;;;;;;18.36;73.98;97588.69;5155151;27;39941;-78
2023/08/02 06:26:13;;;;;;;2.40;1.20;;;;;;;18.39;74.09;97580.31;5154692;27;42038;-77
2023/08/02 06:28:42;;;;;;;2.13;1.30;;;;;;;18.30;74.41;97556.19;5137303;27;42929;-78
2023/08/02 06:31:10;;;;;;;2.57;1.60;;;;;;;18.46;74.37;97567.84;5137480;27;42342;-77
2023/08/02 06:33:38;;;;;;;1.20;1.10;;;;;;;18.48;74.06;97565.81;5120632;27;39800;-78
2023/08/02 06:36:05;;;;;;;1.70;1.27;;;;;;;18.48;74.71;97560.47;5154745;27;40706;-78
2023/08/02 06:38:33;;;;;;;3.13;1.00;;;;;;;18.47;74.81;97558.78;5137516;27;42064;-77
2023/08/02 06:41:00;;;;;;;1.47;1.13;;;;;;;18.47;74.99;97559.63;5154897;27;41012;-78
2023/08/02 06:43:28;;;;;;;1.87;1.13;;;;;;;18.40;75.42;97541.75;5174489;27;41651;-77
2023/08/02 06:45:58;;;;;;;2.03;1.30;;;;;;;18.47;76.04;97548.91;5155696;27;42586;-77
2023/08/02 06:48:26;;;;;;;2.27;1.20;;;;;;;18.46;75.77;97541.88;5155876;27;41591;-77
2023/08/02 06:50:54;;;;;;;1.43;1.10;;;;;;;18.36;76.15;97525.19;5138120;27;41234;-77
2023/08/02 06:53:22;;;;;;;1.77;1.10;;;;;;;18.45;76.82;97526.81;5138153;27;39827;-77
2023/08/02 06:55:50;;;;;;;1.47;1.00;;;;;;;18.47;77.25;97532.00;5138540;27;42147;-77
2023/08/02 06:58:17;;;;;;;1.73;1.40;;;;;;;18.55;77.10;97523.88;5137788;27;43096;-78
2023/08/02 07:00:45;;;;;;;1.33;1.00;;;;;;;18.62;77.53;97524.88;5138195;27;41253;-77
2023/08/02 07:03:14;;;;;;;2.17;1.33;;;;;;;18.73;78.08;97521.78;5147142;27;40522;-78
2023/08/02 07:05:43;;;;;;;1.77;1.30;;;;;;;18.67;77.52;97498.34;5138537;27;42083;-78
2023/08/02 07:08:10;;;;;;;1.47;1.03;;;;;;;18.79;78.17;97521.03;5137835;27;41903;-78
2023/08/02 07:10:37;;;;;;;1.87;1.27;;;;;;;18.77;77.92;97517.72;5153926;27;42109;-77
2023/08/02 07:13:05;;;;;;;1.23;1.03;;;;;;;18.79;78.28;97515.69;5154147;27;40265;-78
2023/08/02 07:15:33;;;;;;;1.70;1.13;;;;;;;18.77;78.46;97496.28;5154763;27;41973;-78
2023/08/02 07:18:00;;;;;;;1.47;1.20;;;;;;;18.86;78.43;97510.44;5154095;27;42779;-78
2023/08/02 07:20:29;;;;;;;1.77;1.20;;;;;;;18.91;79.04;97502.69;5154136;27;41120;-78
2023/08/02 07:22:57;;;;;;;1.30;1.17;;;;;;;18.91;78.29;97500.03;5136731;27;40168;-78
2023/08/02 07:25:24;;;;;;;1.40;1.13;;;;;;;18.87;78.34;97486.13;5153870;27;40783;-78
2023/08/02 07:27:52;;;;;;;3.20;1.47;;;;;;;18.85;78.71;97488.16;5136463;27;43278;-78
2023/08/02 07:30:20;;;;;;;1.57;1.23;;;;;;;18.82;78.74;97488.50;5153881;27;42059;-78
2023/08/02 07:32:48;;;;;;;1.53;1.30;;;;;;;18.78;78.31;97471.13;5154152;27;41124;-78
2023/08/02 07:35:15;;;;;;;2.07;1.10;;;;;;;18.75;77.93;97482.22;5153961;27;40724;-79
2023/08/02 07:37:45;;;;;;;1.17;1.03;;;;;;;18.68;78.24;97459.78;5154186;27;43809;-79
2023/08/02 07:40:13;;;;;;;2.63;1.40;;;;;;;18.79;77.96;97467.41;5137445;27;42346;-77
2023/08/02 07:42:41;;;;;;;2.37;1.30;;;;;;;18.76;78.48;97446.34;5140835;27;40075;-78
2023/08/02 07:45:11;;;;;;;1.53;1.30;;;;;;;18.85;78.63;97450.59;5158651;27;41712;-78
2023/08/02 07:47:40;;;;;;;2.40;1.30;;;;;;;18.88;78.32;97447.56;5175759;27;42845;-78
2023/08/02 07:50:09;;;;;;;3.13;1.40;;;;;;;18.96;78.50;97447.47;5141151;27;42325;-78
2023/08/02 07:52:36;;;;;;;2.40;1.17;;;;;;;19.06;78.18;97439.16;5176864;27;41761;-77
2023/08/02 07:55:06;;;;;;;2.10;1.40;;;;;;;19.10;79.03;97436.94;5158758;27;40640;-78
2023/08/02 07:57:34;;;;;;;1.30;1.20;;;;;;;19.14;79.21;97422.16;5140959;27;42890;-79
2023/08/02 08:00:03;;;;;;;1.83;1.50;;;;;;;19.09;79.83;97411.97;5158414;27;42311;-78
2023/08/02 08:02:39;;;;;;;2.30;1.37;;;;;;;18.97;80.00;97395.47;5176166;27;41654;-77
2023/08/02 08:05:07;;;;;;;1.47;1.13;;;;;;;18.70;80.87;97355.88;5141221;27;40718;-78
2023/08/02 08:07:35;;;;;;;1.30;1.10;;;;;;;18.91;80.67;97406.97;5157836;27;42892;-78
2023/08/02 08:10:03;;;;;;;2.30;1.20;;;;;;;18.92;81.20;97402.41;5156554;27;42266;-78
2023/08/02 08:12:32;;;;;;;2.10;1.30;;;;;;;18.74;81.46;97370.59;5139069;27;39816;-78
2023/08/02 08:14:59;;;;;;;1.83;1.27;;;;;;;18.99;81.81;97396.13;5139857;27;42172;-78
2023/08/02 08:17:27;;;;;;;3.27;1.17;;;;;;;19.11;81.51;97403.72;5157289;27;42734;-79
2023/08/02 08:19:54;;;;;;;1.80;1.40;;;;;;;19.31;81.97;97408.34;5139303;27;41047;-79
2023/08/02 08:22:28;;;;;;;2.57;1.60;;;;;;;19.49;80.98;97405.31;5156880;27;41893;-78
2023/08/02 08:24:56;;;;;;;1.40;1.30;;;;;;;19.57;80.70;97412.41;5156952;27;41727;-79
2023/08/02 08:27:23;;;;;;;2.57;1.60;;;;;;;19.57;80.18;97413.25;5175547;27;42872;-78
2023/08/02 08:29:52;;;;;;;1.33;1.10;;;;;;;19.58;80.03;97414.91;5156933;27;41200;-78
2023/08/02 08:32:23;;;;;;;1.43;1.33;;;;;;;19.60;79.98;97407.50;5139134;27;39931;-79
2023/08/02 08:34:50;;;;;;;1.63;1.30;;;;;;;19.68;80.14;97399.34;5174483;27;41805;-78
2023/08/02 08:37:17;;;;;;;1.83;1.37;;;;;;;19.67;79.84;97376.19;5156845;27;42799;-78
2023/08/02 08:39:45;;;;;;;1.70;1.40;;;;;;;19.84;80.04;97392.91;5156827;27;42386;-78
2023/08/02 08:42:13;;;;;;;1.97;1.40;;;;;;;19.81;79.77;97382.53;5157168;27;39829;-77
2023/08/02 08:44:41;;;;;;;3.20;1.30;;;;;;;19.87;79.48;97371.06;5140486;27;41072;-78
2023/08/02 08:47:11;;;;;;;1.60;1.27;;;;;;;20.16;79.48;97390.75;5176243;27;43733;-78
2023/08/02 08:49:39;;;;;;;1.50;1.40;;;;;;;19.91;79.05;97339.25;5175247;27;42655;-78
2023/08/02 08:52:11;;;;;;;2.47;1.23;;;;;;;20.20;78.92;97375.91;5139832;27;40075;-78
2023/08/02 08:54:40;;;;;;;1.70;1.30;;;;;;;20.26;78.57;97361.72;5140647;27;40605;-78
2023/08/02 08:57:09;;;;;;;1.70;1.50;;;;;;;20.25;77.99;97346.63;5140059;27;43248;-77
2023/08/02 08:59:37;;;;;;;1.80;1.20;;;;;;;20.41;77.70;97357.94;5139898;27;41670;-78
2023/08/02 09:02:06;;;;;;;1.53;1.20;;;;;;;20.47;77.78;97345.59;5175808;27;40872;-78
2023/08/02 09:04:36;;;;;;;1.57;1.40;;;;;;;20.60;77.71;97355.59;5157505;27;42407;-78
2023/08/02 09:07:04;;;;;;;1.70;1.60;;;;;;;20.66;76.90;97365.56;5175618;27;42990;-79
2023/08/02 09:09:32;;;;;;;1.87;1.50;;;;;;;20.57;76.81;97366.75;5156287;27;41295;-78
2023/08/02 09:12:00;;;;;;;1.90;1.30;;;;;;;20.46;76.76;97353.84;5155644;27;40882;-78
2023/08/02 09:14:28;;;;;;;1.57;1.47;;;;;;;20.36;77.32;97349.63;5156129;27;40651;-78
2023/08/02 09:16:57;;;;;;;2.13;1.60;;;;;;;20.29;77.28;97337.94;5174446;27;43017;-78
2023/08/02 09:19:27;;;;;;;2.07;1.30;;;;;;;20.32;77.67;97332.19;5156110;27;43241;-78
2023/08/02 09:22:14;;;;;;;1.33;1.23;;;;;;;20.35;77.96;97318.41;5174460;27;41223;-78
2023/08/02 09:24:43;;;;;;;3.23;1.60;;;;;;;20.36;78.05;97317.38;5152644;27;41874;-78
2023/08/02 09:27:15;;;;;;;2.00;1.80;;;;;;;20.32;79.29;97316.06;5174250;27;43660;-78
2023/08/02 09:29:45;;;;;;;1.27;1.13;;;;;;;20.36;79.59;97316.53;5155909;27;41165;-78
2023/08/02 09:32:13;;;;;;;1.57;1.47;;;;;;;20.32;80.18;97316.06;5155661;27;40961;-78
2023/08/02 09:34:46;;;;;;;2.00;1.80;;;;;;;20.35;80.33;97321.09;5155974;27;41743;-79
2023/08/02 09:37:17;;;;;;;1.60;1.30;;;;;;;20.32;80.74;97313.38;5173257;27;42757;-79
2023/08/02 09:39:52;;;;;;;2.30;1.60;;;;;;;20.29;81.59;97304.84;5156240;27;41348;-78
2023/08/02 09:42:23;;;;;;;3.20;1.40;;;;;;;20.15;81.16;97308.47;5155280;27;42102;-78
2023/08/02 09:44:53;;;;;;;2.00;1.73;;;;;;;20.04;82.13;97297.22;5153565;27;41753;-78
2023/08/02 09:47:20;;;;;;;1.30;1.20;;;;;;;20.01;82.52;97291.41;5156209;27;42862;-79
2023/08/02 09:50:04;;;;;;;2.27;1.70;;;;;;;19.95;82.19;97279.56;5156928;27;41367;-79
2023/08/02 09:52:33;;;;;;;1.87;1.50;;;;;;;20.00;83.09;97282.50;5174446;27;40724;-79
2023/08/02 09:55:01;;;;;;;2.10;1.60;;;;;;;20.00;83.38;97273.63;5156715;27;40743;-79
2023/08/02 09:57:31;;;;;;;1.50;1.30;;;;;;;20.05;83.31;97273.84;5139410;27;42160;-78
2023/08/02 10:00:04;;;;;;;1.53;1.43;;;;;;;19.94;83.17;97259.09;5156770;27;42198;-77
2023/08/02 10:02:40;;;;;;;2.17;1.70;;;;;;;19.95;84.18;97265.28;5155692;27;40961;-79
2023/08/02 10:05:12;;;;;;;2.40;1.80;;;;;;;19.89;83.72;97271.47;5156622;27;42450;-78
2023/08/02 10:07:45;;;;;;;2.77;1.77;;;;;;;19.83;83.78;97261.47;5155934;27;42731;-79
2023/08/02 10:10:15;;;;;;;1.80;1.43;;;;;;;19.82;83.79;97265.19;5154941;27;42253;-80
2023/08/02 10:12:49;;;;;;;2.27;2.07;;;;;;;19.82;84.45;97260.63;5137579;27;40177;-81
2023/08/02 10:15:18;;;;;;;3.00;1.77;;;;;;;19.83;84.36;97253.41;5155603;27;40614;-80
2023/08/02 10:17:47;;;;;;;1.87;1.70;;;;;;;19.82;84.28;97232.94;5173949;27;43848;-80
2023/08/02 10:20:16;;;;;;;3.20;1.93;;;;;;;19.82;84.29;97238.31;5138169;27;41217;-79
2023/08/02 10:22:46;;;;;;;2.47;1.67;;;;;;;19.78;84.61;97232.50;5154989;27;40977;-80
2023/08/02 10:25:16;;;;;;;2.60;1.90;;;;;;;19.76;84.97;97231.88;5137933;27;40593;-81
2023/08/02 10:27:45;;;;;;;1.70;1.50;;;;;;;19.75;84.94;97226.69;5173901;27;42228;-78
2023/08/02 10:30:13;;;;;;;2.33;1.77;;;;;;;19.79;85.35;97228.78;5173937;27;43278;-80
2023/08/02 10:32:41;;;;;;;2.43;1.90;;;;;;;19.81;85.65;97220.53;5155092;27;41142;-79
2023/08/02 10:35:08;;;;;;;2.47;1.80;;;;;;;19.77;86.28;97224.66;5154919;27;41093;-80
2023/08/02 10:37:55;;;;;;;2.00;1.70;;;;;;;19.66;86.25;97221.44;5154511;27;43290;-79
2023/08/02 10:40:25;;;;;;;2.40;1.67;;;;;;;19.61;87.08;97207.78;5171133;27;42320;-79
2023/08/02 10:43:03;;;;;;;3.63;1.73;;;;;;;19.50;87.65;97191.34;5155835;27;40094;-79
2023/08/02 10:45:30;;;;;;;2.57;2.10;;;;;;;19.55;87.74;97195.09;5156101;27;40657;-80
2023/08/02 10:48:28;;;;;;;2.50;2.00;;;;;;;19.55;88.89;97192.41;5138535;27;42878;-79
2023/08/02 10:50:56;;;;;;;2.77;2.03;;;;;;;19.48;88.79;97188.81;5138616;27;41278;-79
2023/08/02 10:53:26;;;;;;;3.07;2.10;;;;;;;19.41;89.87;97187.13;5155816;27;39983;-79
2023/08/02 10:56:05;;;;;;;2.70;2.30;;;;;;;19.42;90.49;97184.22;5174592;27;42466;-80
2023/08/02 10:58:50;;;;;;;1.70;1.57;;;;;;;19.37;91.24;97175.91;5138448;27;42789;-78
2023/08/02 11:01:18;;;;;;;3.43;2.23;;;;;;;19.28;92.22;97158.28;5155760;27;41148;-80
2023/08/02 11:03:46;;;;;;;2.80;1.90;;;;;;;19.35;91.69;97161.84;5156079;27;41912;-80
2023/08/02 11:06:34;;;;;;;1.87;1.60;;;;;;;19.43;92.52;97158.19;5155847;27;42794;-81
2023/08/02 11:09:09;;;;;;;2.70;2.10;;;;;;;19.46;92.17;97144.38;5169107;27;43154;-84
2023/08/02 11:11:38;;;;;;;3.00;2.30;;;;;;;19.58;92.22;97157.13;5136792;27;42186;-80
2023/08/02 11:14:05;;;;;;;2.47;1.97;;;;;;;19.69;92.12;97151.22;5155712;27;40945;-79
2023/08/02 11:16:39;;;;;;;2.43;2.00;;;;;;;19.77;91.99;97147.59;5158843;27;41387;-80
2023/08/02 11:19:09;;;;;;;2.60;1.90;;;;;;;19.72;92.49;97137.41;5159219;27;43305;-82
2023/08/02 11:21:38;;;;;;;3.30;1.97;;;;;;;19.87;92.03;97139.19;5158636;27;41106;-81
2023/08/02 11:24:07;;;;;;;2.30;1.87;;;;;;;19.90;92.19;97133.41;5141291;27;40243;-81
2023/08/02 11:26:34;;;;;;;2.90;2.00;;;;;;;19.93;92.19;97127.63;5140925;27;42399;-80
2023/08/02 11:29:08;;;;;;;3.43;2.43;;;;;;;20.07;92.10;97126.69;5159058;27;41823;-82
2023/08/02 11:31:36;;;;;;;2.43;2.07;;;;;;;20.14;91.89;97124.88;5156584;27;42039;-80
2023/08/02 11:34:05;;;;;;;3.47;2.30;;;;;;;20.17;91.87;97120.94;5177421;27;40836;-81
2023/08/02 11:36:33;;;;;;;2.57;1.90;;;;;;;20.16;92.37;97120.13;5157961;27;42077;-82
2023/08/02 11:39:01;;;;;;;2.30;1.80;;;;;;;20.15;92.31;97117.66;5158911;27;42192;-80
2023/08/02 11:41:30;;;;;;;2.83;1.80;;;;;;;20.02;92.89;97113.88;5141979;27;41441;-83